createdAt,value
2023-03-26T00:00:17.192Z,4.20
2023-03-26T00:03:08.018Z,4.50
2023-03-26T00:05:39.129Z,4.70
2023-03-26T00:08:10.256Z,5.20
2023-03-26T00:10:41.901Z,6.40
2023-03-26T00:13:12.861Z,6.00
2023-03-26T00:15:43.980Z,5.20
2023-03-26T00:18:15.124Z,5.20
2023-03-26T00:20:45.963Z,5.20
2023-03-26T00:23:17.112Z,6.20
2023-03-26T00:25:51.401Z,5.70
2023-03-26T00:28:23.172Z,5.40
2023-03-26T00:30:59.037Z,6.70
2023-03-26T00:33:31.711Z,4.40
2023-03-26T00:36:04.420Z,4.40
2023-03-26T00:38:39.155Z,5.30
2023-03-26T00:41:18.153Z,3.60
2023-03-26T00:43:50.303Z,4.10
2023-03-26T00:46:21.318Z,5.70
2023-03-26T00:48:52.156Z,5.00
2023-03-26T00:51:23.941Z,3.60
2023-03-26T00:53:55.156Z,4.40
2023-03-26T00:56:26.648Z,4.90
2023-03-26T00:58:58.099Z,4.90
2023-03-26T01:01:30.725Z,4.70
2023-03-26T01:04:15.148Z,5.10
2023-03-26T01:06:47.145Z,6.20
2023-03-26T01:09:19.453Z,7.20
2023-03-26T01:11:51.100Z,3.60
2023-03-26T01:14:23.975Z,5.00
2023-03-26T01:16:56.791Z,4.50
2023-03-26T01:19:30.712Z,6.20
2023-03-26T01:22:02.124Z,5.40
2023-03-26T01:24:33.369Z,5.20
2023-03-26T01:27:11.378Z,5.00
2023-03-26T01:29:44.359Z,5.00
2023-03-26T01:32:24.047Z,6.10
2023-03-26T01:35:12.759Z,4.30
2023-03-26T01:37:52.696Z,5.10
2023-03-26T01:40:27.534Z,5.60
2023-03-26T01:43:01.778Z,4.90
2023-03-26T01:45:35.280Z,5.80
2023-03-26T01:48:06.661Z,4.30
2023-03-26T01:50:37.736Z,4.90
2023-03-26T01:53:10.068Z,4.90
2023-03-26T01:55:49.956Z,4.70
2023-03-26T01:58:26.906Z,5.50
2023-03-26T02:01:02.481Z,5.30
2023-03-26T02:03:34.738Z,3.50
2023-03-26T02:06:08.613Z,3.80
2023-03-26T02:08:41.751Z,3.20
2023-03-26T02:11:14.309Z,3.10
2023-03-26T02:13:46.105Z,3.70
2023-03-26T02:16:19.099Z,4.80
2023-03-26T02:18:55.909Z,4.00
2023-03-26T02:21:27.598Z,4.70
2023-03-26T02:24:03.494Z,4.60
2023-03-26T02:26:37.905Z,8.60
2023-03-26T02:29:15.118Z,6.10
2023-03-26T02:31:48.453Z,5.50
2023-03-26T02:34:19.422Z,5.10
2023-03-26T02:36:54.263Z,5.60
2023-03-26T02:39:26.584Z,5.10
2023-03-26T02:42:07.312Z,4.70
2023-03-26T02:44:42.797Z,4.30
2023-03-26T02:47:22.868Z,4.30
2023-03-26T02:49:56.449Z,5.80
2023-03-26T02:52:49.507Z,6.20
2023-03-26T02:55:20.667Z,5.40
2023-03-26T02:57:52.946Z,4.30
2023-03-26T03:00:26.928Z,7.00
2023-03-26T03:03:18.006Z,4.80
2023-03-26T03:06:03.509Z,3.80
2023-03-26T03:08:46.397Z,3.90
2023-03-26T03:11:37.546Z,7.30
2023-03-26T03:14:08.896Z,6.20
2023-03-26T03:16:39.978Z,5.00
2023-03-26T03:19:13.226Z,4.90
2023-03-26T03:21:44.370Z,5.50
2023-03-26T03:24:18.656Z,6.80
2023-03-26T03:26:56.998Z,5.40
2023-03-26T03:29:46.089Z,5.00
2023-03-26T03:32:37.075Z,5.40
2023-03-26T03:35:09.241Z,6.60
2023-03-26T03:37:40.080Z,7.80
2023-03-26T03:40:12.352Z,4.50
2023-03-26T03:42:43.202Z,5.90
2023-03-26T03:45:15.241Z,5.90
2023-03-26T03:47:46.420Z,5.50
2023-03-26T03:50:18.034Z,6.20
2023-03-26T03:53:08.550Z,7.30
2023-03-26T03:55:42.324Z,8.60
2023-03-26T03:58:14.775Z,4.90
2023-03-26T04:00:46.022Z,6.40
2023-03-26T04:03:38.913Z,4.40
2023-03-26T04:06:14.460Z,4.80
2023-03-26T04:08:45.304Z,5.50
2023-03-26T04:11:16.540Z,5.00
2023-03-26T04:14:08.169Z,4.30
2023-03-26T04:17:08.725Z,4.80
2023-03-26T04:19:40.617Z,5.00
2023-03-26T04:22:12.717Z,4.30
2023-03-26T04:24:54.546Z,4.40
2023-03-26T04:27:32.920Z,6.00
2023-03-26T04:30:17.339Z,6.90
2023-03-26T04:32:49.571Z,4.60
2023-03-26T04:35:20.550Z,5.90
2023-03-26T04:37:56.853Z,5.10
2023-03-26T04:40:32.287Z,6.20
2023-03-26T04:43:19.013Z,4.90
2023-03-26T04:46:15.057Z,4.40
2023-03-26T04:48:53.454Z,4.60
2023-03-26T04:51:27.437Z,5.00
2023-03-26T04:54:00.333Z,5.60
2023-03-26T04:56:40.934Z,4.90
2023-03-26T04:59:26.324Z,5.00
2023-03-26T05:02:00.349Z,7.50
2023-03-26T05:04:34.293Z,5.20
2023-03-26T05:07:05.740Z,4.70
2023-03-26T05:09:45.629Z,6.00
2023-03-26T05:12:19.079Z,4.60
2023-03-26T05:14:57.088Z,5.20
2023-03-26T05:17:57.261Z,5.00
2023-03-26T05:20:40.099Z,4.60
2023-03-26T05:23:11.823Z,4.60
2023-03-26T05:25:47.274Z,7.80
2023-03-26T05:28:25.133Z,4.50
2023-03-26T05:31:09.756Z,5.10
2023-03-26T05:33:43.043Z,4.50
2023-03-26T05:36:16.542Z,7.70
2023-03-26T05:38:52.579Z,5.00
2023-03-26T05:41:46.306Z,6.80
2023-03-26T05:44:17.453Z,5.00
2023-03-26T05:46:48.530Z,4.10
2023-03-26T05:49:24.561Z,3.90
2023-03-26T05:51:55.655Z,4.80
2023-03-26T05:54:56.017Z,7.90
2023-03-26T05:57:45.524Z,7.20
2023-03-26T06:00:42.435Z,5.20
2023-03-26T06:03:15.235Z,5.00
2023-03-26T06:05:51.616Z,4.90
2023-03-26T06:08:38.605Z,4.20
2023-03-26T06:11:10.468Z,5.10
2023-03-26T06:13:43.893Z,6.30
2023-03-26T06:16:26.346Z,5.10
2023-03-26T06:19:08.670Z,5.30
2023-03-26T06:21:59.737Z,4.10
2023-03-26T06:24:38.505Z,5.50
2023-03-26T06:27:25.934Z,4.90
2023-03-26T06:30:17.459Z,4.50
2023-03-26T06:33:04.833Z,6.40
2023-03-26T06:35:43.308Z,5.10
2023-03-26T06:38:14.505Z,7.60
2023-03-26T06:40:45.978Z,6.20
2023-03-26T06:43:39.714Z,4.40
2023-03-26T06:46:28.948Z,4.80
2023-03-26T06:49:18.083Z,4.30
2023-03-26T06:51:54.856Z,5.50
2023-03-26T06:54:53.345Z,5.20
2023-03-26T06:57:45.374Z,6.90
2023-03-26T07:00:42.545Z,4.90
2023-03-26T07:03:39.973Z,5.80
2023-03-26T07:06:29.264Z,6.00
2023-03-26T07:09:18.358Z,7.00
2023-03-26T07:12:08.926Z,5.00
2023-03-26T07:14:40.074Z,6.60
2023-03-26T07:17:29.335Z,4.30
2023-03-26T07:20:27.198Z,6.20
2023-03-26T07:22:58.595Z,6.30
2023-03-26T07:25:45.678Z,5.00
2023-03-26T07:28:21.916Z,7.30
2023-03-26T07:31:17.858Z,5.20
2023-03-26T07:34:04.401Z,6.00
2023-03-26T07:36:49.998Z,5.20
2023-03-26T07:39:40.836Z,6.10
2023-03-26T07:42:29.320Z,6.90
2023-03-26T07:45:29.050Z,5.90
2023-03-26T07:48:17.379Z,6.40
2023-03-26T07:51:15.417Z,6.40
2023-03-26T07:53:55.900Z,4.90
2023-03-26T07:56:50.348Z,5.50
2023-03-26T07:59:41.374Z,7.10
2023-03-26T08:02:31.148Z,6.90
2023-03-26T08:05:19.107Z,5.70
2023-03-26T08:07:57.412Z,7.50
2023-03-26T08:10:38.620Z,4.60
2023-03-26T08:13:17.401Z,4.70
2023-03-26T08:15:53.946Z,5.90
2023-03-26T08:18:28.510Z,6.20
2023-03-26T08:21:01.581Z,6.30
2023-03-26T08:23:35.220Z,4.60
2023-03-26T08:26:09.808Z,5.80
2023-03-26T08:28:46.039Z,4.10
2023-03-26T08:31:18.179Z,4.90
2023-03-26T08:33:50.202Z,4.00
2023-03-26T08:36:21.342Z,4.70
2023-03-26T08:38:52.680Z,4.80
2023-03-26T08:41:49.533Z,5.80
2023-03-26T08:44:33.676Z,4.10
2023-03-26T08:47:18.758Z,5.90
2023-03-26T08:50:02.991Z,6.90
2023-03-26T08:52:50.676Z,5.20
2023-03-26T08:55:36.579Z,6.60
2023-03-26T08:58:28.542Z,7.70
2023-03-26T09:01:13.930Z,5.20
2023-03-26T09:04:00.043Z,5.50
2023-03-26T09:06:49.486Z,6.80
2023-03-26T09:09:28.006Z,5.70
2023-03-26T09:12:09.029Z,3.90
2023-03-26T09:14:48.021Z,5.00
2023-03-26T09:17:30.478Z,4.40
2023-03-26T09:20:15.786Z,5.90
2023-03-26T09:22:56.697Z,3.60
2023-03-26T09:25:43.571Z,5.30
2023-03-26T09:28:31.058Z,4.20
2023-03-26T09:31:18.464Z,3.90
2023-03-26T09:33:59.515Z,5.00
2023-03-26T09:36:43.255Z,7.70
2023-03-26T09:39:18.293Z,4.80
2023-03-26T09:41:54.466Z,4.50
2023-03-26T09:44:39.910Z,5.00
2023-03-26T09:47:27.296Z,4.40
2023-03-26T09:50:03.807Z,4.40
2023-03-26T09:52:42.826Z,6.90
2023-03-26T09:55:29.735Z,6.30
2023-03-26T09:58:13.304Z,4.70
2023-03-26T10:00:47.570Z,3.90
2023-03-26T10:03:27.577Z,7.30
2023-03-26T10:06:07.070Z,4.10
2023-03-26T10:08:44.781Z,4.40
2023-03-26T10:11:20.223Z,3.60
2023-03-26T10:14:05.306Z,6.00
2023-03-26T10:16:42.336Z,5.00
2023-03-26T10:19:19.869Z,4.80
2023-03-26T10:21:53.973Z,4.70
2023-03-26T10:24:41.343Z,4.40
2023-03-26T10:27:16.701Z,4.10
2023-03-26T10:30:01.103Z,4.40
2023-03-26T10:32:35.148Z,5.20
2023-03-26T10:37:48.956Z,3.90
2023-03-26T10:40:23.948Z,4.90
2023-03-26T10:43:12.553Z,3.40
2023-03-26T10:45:56.333Z,3.50
2023-03-26T10:48:37.979Z,3.70
2023-03-26T10:51:27.931Z,4.70
2023-03-26T10:54:00.428Z,3.30
2023-03-26T10:56:34.680Z,5.00
2023-03-26T10:59:07.302Z,4.00
2023-03-26T11:01:43.182Z,3.50
2023-03-26T11:04:33.672Z,5.50
2023-03-26T11:07:10.142Z,3.40
2023-03-26T11:09:43.895Z,4.80
2023-03-26T11:12:26.738Z,3.50
2023-03-26T11:15:09.374Z,3.50
2023-03-26T11:17:45.549Z,4.00
2023-03-26T11:20:19.294Z,4.50
2023-03-26T11:22:56.687Z,4.50
2023-03-26T11:25:31.953Z,4.50
2023-03-26T11:28:14.013Z,4.30
2023-03-26T11:30:48.403Z,3.60
2023-03-26T11:33:21.645Z,3.90
2023-03-26T11:35:54.262Z,5.10
2023-03-26T11:45:16.764Z,3.20
2023-03-26T11:59:24.090Z,3.40
2023-03-26T12:01:59.507Z,4.20
2023-03-26T12:28:48.963Z,5.10
2023-03-26T12:31:20.670Z,4.20
2023-03-26T12:34:07.979Z,4.30
2023-03-26T12:36:39.309Z,4.90
2023-03-26T12:44:49.991Z,5.10
2023-03-26T12:47:54.259Z,4.80
2023-03-26T12:48:42.504Z,5.40
2023-03-26T13:03:03.338Z,3.80
2023-03-26T13:05:55.937Z,5.80
2023-03-26T13:08:34.532Z,4.60
2023-03-26T13:18:24.699Z,5.70
2023-03-26T13:20:58.536Z,3.70
2023-03-26T13:23:33.885Z,3.40
2023-03-26T13:33:26.863Z,3.10
2023-03-26T13:47:28.519Z,5.00
2023-03-26T14:01:24.345Z,5.50
2023-03-26T14:03:59.322Z,4.50
2023-03-26T14:17:05.542Z,4.40
2023-03-26T14:19:49.974Z,3.80
2023-03-26T14:22:25.623Z,6.30
2023-03-26T14:32:14.284Z,4.00
2023-03-26T14:34:53.288Z,3.60
2023-03-26T14:37:30.383Z,5.50
2023-03-26T14:47:19.379Z,4.20
2023-03-26T14:52:22.680Z,4.60
2023-03-26T15:02:08.339Z,6.20
2023-03-26T15:16:34.739Z,5.20
2023-03-26T15:19:22.039Z,4.10
2023-03-26T15:30:41.251Z,5.80
2023-03-26T15:44:54.154Z,4.90
2023-03-26T15:47:39.444Z,5.50
2023-03-26T15:50:19.711Z,4.10
2023-03-26T15:52:54.805Z,3.90
2023-03-26T15:55:31.947Z,5.60
2023-03-26T16:09:49.288Z,4.70
2023-03-26T16:12:31.242Z,4.20
2023-03-26T16:24:25.426Z,4.30
2023-03-26T17:07:20.345Z,5.60
2023-03-26T17:21:23.248Z,5.70
2023-03-26T17:35:41.137Z,4.20
2023-03-26T17:38:32.931Z,6.20
2023-03-26T17:41:04.846Z,4.60
2023-03-26T17:51:18.515Z,6.70
2023-03-26T17:53:53.177Z,5.30
2023-03-26T18:06:55.459Z,5.30
2023-03-26T18:09:37.376Z,6.40
2023-03-26T18:20:38.184Z,6.20
2023-03-26T18:23:14.025Z,8.50
2023-03-26T18:36:17.089Z,7.40
2023-03-26T18:38:49.169Z,7.10
2023-03-26T18:41:23.873Z,7.50
2023-03-26T18:51:30.653Z,8.40
2023-03-26T18:54:05.513Z,7.20
2023-03-26T19:06:48.714Z,8.80
2023-03-26T19:09:31.101Z,8.10
2023-03-26T19:20:42.659Z,10.30
2023-03-26T19:23:15.917Z,8.60
2023-03-26T19:35:22.391Z,8.50
2023-03-26T19:37:55.176Z,8.60
2023-03-26T19:50:16.541Z,10.90
2023-03-26T19:52:47.597Z,12.80
2023-03-26T20:05:47.868Z,12.10
2023-03-26T20:20:17.914Z,16.90
2023-03-26T20:22:49.748Z,20.30
2023-03-26T20:35:16.455Z,18.70
2023-03-26T20:37:48.093Z,17.70
2023-03-26T20:49:51.551Z,15.80
2023-03-26T20:52:25.818Z,14.60
2023-03-26T21:05:24.948Z,14.90
2023-03-26T21:07:57.298Z,12.40
2023-03-26T21:21:20.284Z,11.90
2023-03-26T21:23:59.413Z,11.50
2023-03-26T21:26:32.109Z,15.40
2023-03-26T21:36:28.401Z,14.90
2023-03-26T21:39:00.127Z,12.00
2023-03-26T21:51:49.635Z,10.30
2023-03-26T21:54:24.166Z,11.10
2023-03-26T22:07:23.196Z,11.20
2023-03-26T22:21:17.626Z,12.60
2023-03-26T22:35:23.468Z,14.20
2023-03-26T22:50:09.585Z,8.40
2023-03-26T22:52:41.277Z,10.00
2023-03-26T23:04:51.289Z,8.70
2023-03-26T23:19:55.850Z,9.40
2023-03-26T23:34:21.508Z,8.00
2023-03-26T23:36:52.485Z,10.50
2023-03-26T23:49:44.010Z,5.60
